• Join FlightAware (Why Join?)
  • Login
  • US Flag 
02:41AM EDT


 

Airport Tracker/Info


-or-


 

Live Flight TrackerFlight Track Log ✈ SWA259 ✈ 13-Jul-2014 ✈ KMSY - KDAL

Flight Track Log - Related Links

Times and Time Zones

All times are in EDT time to prevent confusion due to time zone crossing. See the SWA259 flight status page for this flight to view local times or setup timezone preferences in your user account.

Time Position Orientation Groundspeed Altitude Reporting Facility
EDT Latitude Longitude Course Direction KTS MPH feet Rate Location/Type
03:05PM 29.9803 -90.2536 221° Southwest 151 174 500  Level Houston Center
03:06PM 29.9378 -90.2961 221° Southwest 224 258 2,700 1,560 Climbing Houston Center
03:06PM 29.9392 -90.2964 350° North 247 284 2,700 3,120 Level Houston Center
03:07PM 29.9631 -90.3817 288° West 286 329 6,200 3,660 Climbing Houston Center
03:08PM 30.0133 -90.4517 310° West 304 350 9,900 3,000 Climbing Houston Center
03:09PM 30.0928 -90.5261 321° Northwest 320 368 12,800 2,580 Climbing Houston Center
03:11PM 30.1703 -90.6019 320° Northwest 357 411 15,600 2,460 Climbing Houston Center
03:12PM 30.2511 -90.6783 321° Northwest 372 428 17,900 2,220 Climbing Houston Center
03:13PM 30.3403 -90.7606 321° Northwest 402 463 20,200 2,460 Climbing Houston Center
03:14PM 30.4506 -90.8636 321° Northwest 420 483 23,000 1,320 Climbing Houston Center
03:15PM 30.5458 -90.9508 322° Northwest 432 497 23,000  Level Houston Center
03:16PM 30.6392 -91.0372 321° Northwest 431 496 23,000  Level Houston Center
03:17PM 30.7403 -91.1325 321° Northwest 431 496 23,000  Level Houston Center
03:18PM 30.8275 -91.2250 318° Northwest 430 495 23,000 420 Level Houston Center
03:19PM 30.8675 -91.3556 290° West 425 489 23,900 1,320 Climbing Houston Center
03:20PM 30.9131 -91.4858 292° West 430 495 25,800 1,740 Climbing Houston Center
03:21PM 30.9589 -91.6208 292° West 445 512 27,600 1,560 Climbing Houston Center
03:22PM 31.0061 -91.7589 292° West 455 524 29,100 1,500 Climbing Houston Center
03:23PM 31.0639 -91.9289 292° West 465 535 30,800 1,320 Climbing Houston Center
03:24PM 31.1081 -92.0633 291° West 485 558 31,900 1,440 Climbing Houston Center
03:25PM 31.1750 -92.1950 301° West 480 552 33,800 1,800 Climbing Houston Center
03:26PM 31.2967 -92.3178 319° Northwest 483 556 35,700 1,020 Climbing Houston Center
03:27PM 31.4003 -92.4169 321° Northwest 483 556 36,000 480 Climbing Houston Center
03:28PM 31.5022 -92.5189 320° Northwest 483 556 36,700 960 Climbing Houston Center
03:29PM 31.6042 -92.6178 320° Northwest 479 551 38,100 1,020 Climbing Houston Center
03:30PM 31.6783 -92.7431 305° West 477 549 38,900 900 Climbing Houston Center
03:31PM 31.7011 -92.9222 279° West 469 540 40,000 480 Climbing Houston Center
03:32PM 31.7103 -93.0744 274° West 467 537 40,000  Level Houston Center
03:33PM 31.7164 -93.2253 273° West 467 537 40,000  Level Houston Center
03:34PM 31.7244 -93.3800 274° West 467 537 40,000  Level Houston Center
03:35PM 31.7431 -93.5311 278° West 467 537 40,000  Level Houston Center
03:36PM 31.7900 -93.6825 290° West 470 541 40,000  Level Houston Center
03:37PM 31.8400 -93.8500 289° West 471 542 40,000  Level Houston Center
03:38PM 31.8767 -93.9683 290° West 475 547 40,000  Level Fort Worth Center
03:39PM 31.9231 -94.1208 290° West 476 548 40,000  Level Fort Worth Center
03:40PM 31.9664 -94.2678 289° West 476 548 40,000  Level Fort Worth Center
03:41PM 32.0111 -94.4153 290° West 479 551 40,000 -540 Level Fort Worth Center
03:42PM 32.0544 -94.5622 289° West 479 551 38,900 -2,040 Descending Fort Worth Center
03:43PM 32.1047 -94.7342 289° West 469 540 35,800 -3,000 Descending Fort Worth Center
03:44PM 32.1478 -94.8783 289° West 468 539 32,700 -2,760 Descending Fort Worth Center
03:46PM 32.1897 -95.0258 289° West 474 545 30,100 -2,460 Descending Fort Worth Center
03:47PM 32.2347 -95.1783 289° West 464 534 27,700 -2,220 Descending Fort Worth Center
03:48PM 32.2739 -95.3153 289° West 441 507 25,500 -2,160 Descending Fort Worth Center
03:49PM 32.3125 -95.4464 289° West 426 490 23,300 -2,100 Descending Fort Worth Center
03:50PM 32.3486 -95.5744 288° West 415 478 21,200 -2,040 Descending Fort Worth Center
03:51PM 32.3825 -95.6969 288° West 394 453 19,100 -2,160 Descending Fort Worth Center
03:52PM 32.4219 -95.8364 289° West 371 427 16,800 -2,100 Descending Fort Worth Center
03:53PM 32.4558 -95.9506 289° West 362 417 14,800 -2,040 Descending Fort Worth Center
03:54PM 32.4892 -96.0681 289° West 353 406 12,700 -1,920 Descending Fort Worth Center
03:55PM 32.5186 -96.1742 288° West 342 394 10,800 -1,440 Descending Fort Worth Center
03:56PM 32.5492 -96.2836 288° West 321 369 9,700 -960 Descending Fort Worth Center
03:57PM 32.5844 -96.3708 296° West 303 349 8,900 -960 Descending Fort Worth Center
03:58PM 32.6350 -96.4572 305° West 295 339 7,800 -1,080 Descending Fort Worth Center
03:59PM 32.6817 -96.5350 305° West 293 337 6,700 -1,080 Descending Fort Worth Center
04:00PM 32.7383 -96.5989 317° Northwest 280 322 5,600 -840 Descending Fort Worth Center
04:01PM 32.7972 -96.6642 317° Northwest 270 311 5,000 -360 Descending Fort Worth Center
04:02PM 32.8464 -96.7200 316° Northwest 249 287 4,900 -480 Descending Fort Worth Center
04:03PM 32.8939 -96.7714 318° Northwest 215 247 4,100 -960 Descending Fort Worth Center
04:04PM 32.9294 -96.8258 308° West 215 247 3,000 -1,020 Descending Fort Worth Center
04:05PM 32.9333 -96.8967 274° West 202 232 2,000 -780 Descending Fort Worth Center
04:06PM 32.8931 -96.8997 184° South 160 184 1,400 -660 Descending Fort Worth Center
04:07PM 32.8672 -96.8683 134° Southeast 147 169 700 -720 Descending Fort Worth Center